Meade, KS

7:31 PM CST on December 18, 2014 (GMT -0600)
4 miles NW of Fowler | Change Station
CLOSE
Current Station
Personal Weather Station
Location: Fowler, KS
Elevation: 2493 ft
Nearby Weather Stations

Elev 2493 ft 37.41 °N, 100.25 °W | Updated 7 minutes ago

Overcast
Overcast
32.5 °F
Feels Like 32 °F
N
0.0
Wind Variable Wind from SE

Today
High -- | Low -- °F
--% Chance of Precip.
Yesterday
High -- | Low -- °F
Precip. -- in
7:50 AM 5:26 PM
Waning Crescent, 11% visible
Pressure 30.16 in
Visibility 10.0 miles
Clouds Scattered Clouds 900 ft
Overcast 1500 ft
Windchill 32 °F
Dew Point 31 °F
Humidity 95%
Rainfall 0.04 in
Snow Depth Not available.
UV 0.0 out of 12
Pollen .10 out of 12
Air Quality Not available.
Flu Activity Not available.
METAR KLBL 190115Z AUTO 14005KT 10SM SCT009 OVC015 02/M01 A3016 RMK AO1

More Conditions Fewer Conditions

Pressure 30.16 in
Visibility 10.0 miles
Clouds Scattered Clouds 900 ft
Overcast 1500 ft
Windchill 32 °F
Dew Point 31 °F
Humidity 95%
Rainfall 0.04 in
Snow Depth Not available.
UV 0.0 out of 12
Pollen .10 out of 12
Air Quality Not available.
Flu Activity Not available.
METAR KLBL 190115Z AUTO 14005KT 10SM SCT009 OVC015 02/M01 A3016 RMK AO1

More Conditions Fewer Conditions

10-Day Weather Forecast

Almanac

Astronomy

Dec. 18, 2014 Rise Set
Actual Time
Civil Twilight
Nautical Twilight
Astronomical Twilight
Moon
Length of Visible Light
Length of Day
Tomorrow will be .
, % of the Moon is Illuminated

Today's Extremes

State Highs State Lows

Community

WunderPhotos

Upload Photos

1,779,032 photos uploaded!

WunderBlogs® & News

Nearby

Air Quality

  Air Quality AQ Index Pollutant
Not available.

Snow Depth

Station Depth Elevation

Earthquake Activity

City Distance Mag. Time & Date
Minimum magnitude displayed is 2.5.

Coastal Water Temperatures

Place Temperature

Nearby Weather Stations